首页
METAR-TAF:

METAR-TAF

机场 :

贝灵厄姆, 华盛顿, 美国

纬度: 48-47-58N, 经度: 122-32-21W, 海拔: 48米

当前天气观测

该预报发布于54分钟前的16:53 UTC
风速6节,风向南转西南
温度 16°C
湿度 82%
气压 1022 hPa
能見度: 16.1公里
散云层高于1000英尺
多云层高于1700英尺
阴天层高于5000英尺

METAR: KBLI 081653Z 21006KT 10SM SCT010 BKN017 OVC050 16/13 A3018 RMK AO2 SLP225 T01610128

时间: 10:47 (17:47 UTC)

预报

该预报发布于22分钟前的17:25 UTC
预报有效从08日的 18点(UTC)到 09日的 18点(UTC)
风速6节,风向西南
能見度: 10公里
多云层高于1500英尺
阴天层高于4000英尺
附近有阵雨
从 08日的 2000点(UTC)
风速7节,风向
能見度: 10公里
多云层高于5000英尺
从 09日的 0300点(UTC)
风速4节,风向多变
能見度: 10公里
少量云层高于25000英尺

TAF: KBLI 081725Z 0818/0918 22006KT P6SM VCSH BKN015 OVC040 FM082000 19007KT P6SM BKN050 FM090300 VRB04KT P6SM FEW250

超过4000个机场的气象观测和天气预报(METAR&TAF报告)。

可查询的气象台以黄色和红色小点在地图上表示。

将鼠标移到小点上方,可查看气象台名称。

然后点击查看天气观测和预报。

如需切换地图:点击带黑十字的绿色按钮放大地图;点击带横线的绿色按钮缩小地图;或者点击绿色箭头查看邻近地区的地图。


METAR-TAF: